createdAt,value
2023-05-05T00:00:09.434Z,3.53
2023-05-05T00:02:36.237Z,3.40
2023-05-05T00:05:05.492Z,3.63
2023-05-05T00:07:31.957Z,3.78
2023-05-05T00:09:58.514Z,3.40
2023-05-05T00:12:24.954Z,3.20
2023-05-05T00:14:53.487Z,3.47
2023-05-05T00:17:24.956Z,3.47
2023-05-05T00:19:53.834Z,3.70
2023-05-05T00:22:22.668Z,3.65
2023-05-05T00:24:51.601Z,3.08
2023-05-05T00:27:20.651Z,3.45
2023-05-05T00:29:47.108Z,3.53
2023-05-05T00:32:16.172Z,3.20
2023-05-05T00:34:44.038Z,3.08
2023-05-05T00:37:11.224Z,3.22
2023-05-05T00:39:42.966Z,3.13
2023-05-05T00:42:09.577Z,3.92
2023-05-05T00:44:39.261Z,2.83
2023-05-05T00:47:08.893Z,3.40
2023-05-05T00:49:35.962Z,3.28
2023-05-05T00:52:03.561Z,2.97
2023-05-05T00:54:34.211Z,3.50
2023-05-05T00:57:02.095Z,3.22
2023-05-05T00:59:31.207Z,3.08
2023-05-05T01:01:57.702Z,3.00
2023-05-05T01:04:27.962Z,3.33
2023-05-05T01:07:12.726Z,3.47
2023-05-05T01:09:41.616Z,3.78
2023-05-05T01:12:11.475Z,3.38
2023-05-05T01:14:39.496Z,3.38
2023-05-05T01:17:26.387Z,3.60
2023-05-05T01:20:00.687Z,2.97
2023-05-05T01:22:35.772Z,3.38
2023-05-05T01:25:06.741Z,2.88
2023-05-05T01:27:52.192Z,3.22
2023-05-05T01:30:21.774Z,3.45
2023-05-05T01:32:50.883Z,3.15
2023-05-05T01:35:22.580Z,3.08
2023-05-05T01:38:02.699Z,3.35
2023-05-05T01:40:36.036Z,2.90
2023-05-05T01:43:06.626Z,2.90
2023-05-05T01:45:40.007Z,3.30
2023-05-05T01:48:07.670Z,3.45
2023-05-05T01:50:39.530Z,2.80
2023-05-05T01:53:06.556Z,2.85
2023-05-05T01:55:36.545Z,2.60
2023-05-05T01:58:06.471Z,2.85
2023-05-05T02:00:33.963Z,3.10
2023-05-05T02:03:04.350Z,2.63
2023-05-05T02:05:34.120Z,3.20
2023-05-05T02:08:03.150Z,3.00
2023-05-05T02:10:36.944Z,2.70
2023-05-05T02:13:06.364Z,2.85
2023-05-05T02:15:38.685Z,2.78
2023-05-05T02:18:10.722Z,3.05
2023-05-05T02:20:40.984Z,3.22
2023-05-05T02:23:10.037Z,2.88
2023-05-05T02:25:45.701Z,2.25
2023-05-05T02:30:48.498Z,3.20
2023-05-05T02:33:18.787Z,2.60
2023-05-05T02:35:52.222Z,2.67
2023-05-05T02:38:26.425Z,3.10
2023-05-05T02:40:58.440Z,2.53
2023-05-05T02:43:25.765Z,2.60
2023-05-05T02:45:52.525Z,2.42
2023-05-05T02:48:22.490Z,2.53
2023-05-05T02:50:50.752Z,3.13
2023-05-05T02:53:35.082Z,3.08
2023-05-05T02:56:08.133Z,2.60
2023-05-05T02:59:04.977Z,3.20
2023-05-05T03:01:52.136Z,2.38
2023-05-05T03:04:29.211Z,2.55
2023-05-05T03:07:00.035Z,3.05
2023-05-05T03:09:43.462Z,2.90
2023-05-05T03:12:13.714Z,2.55
2023-05-05T03:14:52.013Z,2.67
2023-05-05T03:17:22.337Z,2.58
2023-05-05T03:19:52.114Z,2.40
2023-05-05T03:22:19.368Z,2.90
2023-05-05T03:24:50.593Z,2.30
2023-05-05T03:27:20.497Z,2.65
2023-05-05T03:29:47.053Z,2.65
2023-05-05T03:32:15.705Z,2.95
2023-05-05T03:34:43.194Z,2.55
2023-05-05T03:37:14.225Z,2.45
2023-05-05T03:39:42.202Z,2.70
2023-05-05T03:42:12.839Z,3.10
2023-05-05T03:44:39.407Z,2.70
2023-05-05T03:47:10.582Z,2.47
2023-05-05T03:49:38.744Z,2.83
2023-05-05T03:52:10.237Z,2.58
2023-05-05T03:54:37.973Z,2.53
2023-05-05T03:57:04.539Z,2.45
2023-05-05T03:59:33.084Z,2.70
2023-05-05T04:01:59.764Z,2.65
2023-05-05T04:04:26.452Z,2.65
2023-05-05T04:06:55.960Z,2.83
2023-05-05T04:09:25.404Z,3.20
2023-05-05T04:11:54.448Z,2.50
2023-05-05T04:14:25.931Z,2.80
2023-05-05T04:16:52.624Z,2.60
2023-05-05T04:19:21.936Z,2.88
2023-05-05T04:21:49.131Z,2.70
2023-05-05T04:24:24.729Z,2.65
2023-05-05T04:26:53.292Z,2.67
2023-05-05T04:29:22.997Z,2.08
2023-05-05T04:31:50.576Z,2.53
2023-05-05T04:34:22.649Z,2.85
2023-05-05T04:36:50.595Z,2.35
2023-05-05T04:39:18.265Z,2.90
2023-05-05T04:41:46.933Z,2.53
2023-05-05T04:44:19.528Z,3.30
2023-05-05T04:46:48.915Z,2.95
2023-05-05T04:49:15.957Z,3.30
2023-05-05T04:51:45.268Z,3.42
2023-05-05T04:54:14.398Z,3.10
2023-05-05T04:56:46.642Z,3.38
2023-05-05T04:59:16.163Z,3.13
2023-05-05T05:01:42.668Z,2.70
2023-05-05T05:04:11.763Z,2.63
2023-05-05T05:06:38.255Z,2.67
2023-05-05T05:09:09.228Z,2.75
2023-05-05T05:11:35.780Z,2.92
2023-05-05T05:14:06.923Z,3.28
2023-05-05T05:16:36.075Z,3.10
2023-05-05T05:19:02.713Z,2.88
2023-05-05T05:21:36.141Z,3.38
2023-05-05T05:24:08.048Z,2.80
2023-05-05T05:26:38.294Z,2.80
2023-05-05T05:29:07.833Z,3.47
2023-05-05T05:31:39.858Z,3.22
2023-05-05T05:34:06.949Z,2.75
2023-05-05T05:36:33.565Z,3.30
2023-05-05T05:39:00.166Z,3.08
2023-05-05T05:41:27.634Z,3.28
2023-05-05T05:43:54.725Z,2.80
2023-05-05T05:46:26.356Z,3.30
2023-05-05T05:48:53.007Z,4.07
2023-05-05T05:51:19.859Z,3.08
2023-05-05T05:53:49.809Z,3.50
2023-05-05T05:56:21.564Z,3.63
2023-05-05T05:58:48.705Z,3.08
2023-05-05T06:01:16.052Z,3.97
2023-05-05T06:03:43.260Z,3.30
2023-05-05T06:06:09.854Z,3.20
2023-05-05T06:08:36.805Z,3.13
2023-05-05T06:11:08.788Z,3.10
2023-05-05T06:13:37.823Z,2.95
2023-05-05T06:16:06.079Z,3.22
2023-05-05T06:18:32.879Z,3.28
2023-05-05T06:21:04.413Z,3.35
2023-05-05T06:23:31.490Z,3.63
2023-05-05T06:26:03.379Z,3.90
2023-05-05T06:28:29.796Z,3.40
2023-05-05T06:31:01.364Z,3.33
2023-05-05T06:33:27.973Z,3.75
2023-05-05T06:35:56.877Z,3.30
2023-05-05T06:38:25.826Z,3.08
2023-05-05T06:40:52.394Z,3.20
2023-05-05T06:43:18.936Z,3.10
2023-05-05T06:45:55.094Z,3.30
2023-05-05T06:48:22.145Z,3.15
2023-05-05T06:50:50.784Z,3.40
2023-05-05T06:53:17.204Z,3.53
2023-05-05T06:55:49.638Z,3.10
2023-05-05T06:58:16.335Z,3.88
2023-05-05T07:00:44.868Z,3.20
2023-05-05T07:03:11.740Z,3.15
2023-05-05T07:05:40.813Z,3.22
2023-05-05T07:08:09.711Z,3.28
2023-05-05T07:10:36.355Z,3.05
2023-05-05T07:13:08.518Z,3.00
2023-05-05T07:15:37.675Z,3.13
2023-05-05T07:18:04.206Z,3.25
2023-05-05T07:20:33.173Z,3.10
2023-05-05T07:23:01.985Z,3.00
2023-05-05T07:25:28.617Z,3.50
2023-05-05T07:27:55.072Z,2.97
2023-05-05T07:30:25.009Z,3.03
2023-05-05T07:32:52.020Z,3.03
2023-05-05T07:35:18.503Z,2.60
2023-05-05T07:37:46.016Z,3.08
2023-05-05T07:40:13.164Z,2.55
2023-05-05T07:42:39.651Z,3.10
2023-05-05T07:45:06.763Z,6.28
2023-05-05T07:47:36.336Z,3.35
2023-05-05T07:50:08.339Z,6.10
2023-05-05T07:55:17.241Z,5.47
2023-05-05T07:57:46.036Z,4.75
2023-05-05T08:00:15.289Z,2.70
2023-05-05T08:02:41.944Z,2.67
2023-05-05T08:05:08.622Z,3.40
2023-05-05T08:07:41.191Z,3.00
2023-05-05T08:10:13.194Z,2.28
2023-05-05T08:12:42.124Z,2.35
2023-05-05T08:15:09.102Z,2.25
2023-05-05T08:17:47.229Z,2.53
2023-05-05T08:20:16.500Z,3.17
2023-05-05T08:22:47.976Z,3.13
2023-05-05T08:25:16.988Z,3.03
2023-05-05T08:27:43.558Z,2.42
2023-05-05T08:30:13.253Z,2.97
2023-05-05T08:32:39.847Z,2.83
2023-05-05T08:35:07.282Z,2.25
2023-05-05T08:37:36.420Z,3.10
2023-05-05T08:40:03.408Z,2.60
2023-05-05T08:42:38.600Z,2.38
2023-05-05T08:45:09.957Z,2.58
2023-05-05T08:47:44.061Z,2.67
2023-05-05T08:50:13.589Z,3.40
2023-05-05T08:52:45.825Z,2.53
2023-05-05T08:55:18.130Z,2.70
2023-05-05T08:57:51.850Z,2.90
2023-05-05T09:00:21.951Z,3.28
2023-05-05T09:02:51.145Z,3.00
2023-05-05T09:05:17.792Z,3.08
2023-05-05T09:07:49.216Z,2.70
2023-05-05T09:10:18.663Z,2.85
2023-05-05T09:12:45.146Z,2.92
2023-05-05T09:15:14.641Z,3.20
2023-05-05T09:17:45.790Z,2.53
2023-05-05T09:20:13.444Z,2.58
2023-05-05T09:22:46.744Z,2.92
2023-05-05T09:25:16.913Z,2.80
2023-05-05T09:27:48.533Z,3.10
2023-05-05T09:30:18.525Z,3.10
2023-05-05T09:32:46.447Z,2.90
2023-05-05T09:35:17.641Z,2.60
2023-05-05T09:37:46.519Z,2.65
2023-05-05T09:40:14.053Z,2.80
2023-05-05T09:42:40.719Z,3.08
2023-05-05T09:45:19.667Z,3.17
2023-05-05T09:47:47.068Z,3.10
2023-05-05T09:50:18.985Z,2.67
2023-05-05T09:52:58.232Z,3.20
2023-05-05T09:55:33.182Z,3.13
2023-05-05T09:58:20.940Z,2.85
2023-05-05T10:00:47.771Z,3.47
2023-05-05T10:03:14.359Z,3.58
2023-05-05T10:05:48.065Z,3.05
2023-05-05T10:08:14.632Z,2.90
2023-05-05T10:10:46.686Z,3.10
2023-05-05T10:13:15.624Z,3.67
2023-05-05T10:15:46.889Z,3.53
2023-05-05T10:18:19.515Z,3.20
2023-05-05T10:20:49.779Z,3.40
2023-05-05T10:23:18.412Z,3.83
2023-05-05T10:25:57.396Z,4.22
2023-05-05T10:28:29.659Z,3.65
2023-05-05T10:30:58.265Z,3.53
2023-05-05T10:33:32.491Z,4.00
2023-05-05T10:36:06.028Z,4.50
2023-05-05T10:38:33.280Z,4.38
2023-05-05T10:41:01.183Z,4.03
2023-05-05T10:43:35.579Z,3.75
2023-05-05T10:46:02.336Z,3.58
2023-05-05T10:48:38.193Z,4.15
2023-05-05T10:51:38.707Z,4.20
2023-05-05T10:54:18.930Z,4.05
2023-05-05T10:56:48.174Z,3.67
2023-05-05T10:59:38.362Z,4.22
2023-05-05T11:02:29.732Z,5.68
2023-05-05T11:05:21.988Z,5.68
2023-05-05T11:07:50.051Z,5.28
2023-05-05T11:10:17.526Z,5.18
2023-05-05T11:13:00.038Z,4.68
2023-05-05T11:15:30.059Z,4.57
2023-05-05T11:18:04.814Z,4.50
2023-05-05T11:20:43.540Z,5.40
2023-05-05T11:23:10.147Z,5.65
2023-05-05T11:25:37.357Z,4.50
2023-05-05T11:28:08.199Z,4.45
2023-05-05T11:30:35.489Z,5.45
2023-05-05T11:33:20.737Z,4.97
2023-05-05T11:35:56.595Z,6.03
2023-05-05T11:38:28.534Z,6.25
2023-05-05T11:40:58.170Z,5.65
2023-05-05T11:43:24.659Z,4.85
2023-05-05T11:46:09.196Z,4.25
2023-05-05T11:51:05.418Z,4.53
2023-05-05T11:53:31.936Z,4.38
2023-05-05T11:56:11.336Z,3.92
2023-05-05T11:58:40.154Z,4.20
2023-05-05T12:01:09.165Z,4.07
2023-05-05T12:03:39.022Z,4.22
2023-05-05T12:06:08.270Z,4.53
2023-05-05T12:08:42.844Z,3.97
2023-05-05T12:11:10.175Z,3.83
2023-05-05T12:13:37.015Z,4.10
2023-05-05T12:16:13.790Z,3.97
2023-05-05T12:18:43.624Z,3.95
2023-05-05T12:21:19.262Z,4.13
2023-05-05T12:23:51.219Z,3.65
2023-05-05T12:26:28.050Z,4.07
2023-05-05T12:28:58.401Z,4.05
2023-05-05T12:31:36.395Z,4.40
2023-05-05T12:34:03.713Z,3.65
2023-05-05T12:36:30.796Z,3.55
2023-05-05T12:39:01.969Z,4.38
2023-05-05T12:41:28.585Z,4.65
2023-05-05T12:43:56.596Z,3.70
2023-05-05T12:46:29.597Z,5.53
2023-05-05T12:49:05.084Z,4.80
2023-05-05T12:51:34.531Z,5.93
2023-05-05T12:54:08.458Z,5.95
2023-05-05T12:56:37.502Z,5.53
2023-05-05T12:59:05.679Z,4.93
2023-05-05T13:01:54.869Z,5.40
2023-05-05T13:04:22.887Z,5.78
2023-05-05T13:06:50.008Z,5.47
2023-05-05T13:09:30.382Z,5.30
2023-05-05T13:11:57.016Z,5.28
2023-05-05T13:14:25.954Z,4.80
2023-05-05T13:16:57.408Z,5.07
2023-05-05T13:19:27.617Z,4.72
2023-05-05T13:21:56.982Z,5.03
2023-05-05T13:24:34.421Z,5.60
2023-05-05T13:27:05.618Z,5.22
2023-05-05T13:29:34.805Z,5.05
2023-05-05T13:32:01.355Z,5.10
2023-05-05T13:34:30.198Z,5.07
2023-05-05T13:36:59.066Z,5.47
2023-05-05T13:39:28.023Z,5.22
2023-05-05T13:41:54.526Z,4.78
2023-05-05T13:44:23.907Z,5.85
2023-05-05T13:46:53.139Z,5.28
2023-05-05T13:49:23.864Z,5.35
2023-05-05T13:51:50.824Z,5.00
2023-05-05T13:54:19.741Z,5.47
2023-05-05T13:56:46.285Z,5.82
2023-05-05T13:59:28.220Z,5.03
2023-05-05T14:02:00.893Z,5.18
2023-05-05T14:04:27.595Z,5.20
2023-05-05T14:06:59.418Z,5.70
2023-05-05T14:09:25.924Z,4.78
2023-05-05T14:11:52.453Z,5.03
2023-05-05T14:14:19.671Z,5.40
2023-05-05T14:16:50.939Z,5.18
2023-05-05T14:19:17.440Z,5.07
2023-05-05T14:21:48.731Z,4.75
2023-05-05T14:24:15.255Z,4.80
2023-05-05T14:26:46.929Z,4.95
2023-05-05T14:29:15.964Z,5.45
2023-05-05T14:31:42.498Z,5.05
2023-05-05T14:34:11.453Z,5.10
2023-05-05T14:36:41.193Z,5.00
2023-05-05T14:39:08.072Z,4.22
2023-05-05T14:41:34.543Z,5.50
2023-05-05T14:44:01.036Z,5.47
2023-05-05T14:46:27.592Z,4.47
2023-05-05T14:48:54.111Z,5.03
2023-05-05T14:51:20.753Z,4.88
2023-05-05T14:53:47.654Z,4.45
2023-05-05T14:56:16.981Z,4.53
2023-05-05T14:58:47.297Z,5.55
2023-05-05T15:01:17.187Z,4.30
2023-05-05T15:03:46.239Z,4.60
2023-05-05T15:06:17.591Z,5.15
2023-05-05T15:08:46.541Z,4.97
2023-05-05T15:11:13.720Z,4.50
2023-05-05T15:13:43.058Z,4.43
2023-05-05T15:16:09.575Z,4.63
2023-05-05T15:18:38.658Z,5.60
2023-05-05T15:21:05.142Z,5.10
2023-05-05T15:23:33.949Z,4.53
2023-05-05T15:26:00.480Z,4.03
2023-05-05T15:28:27.114Z,4.13
2023-05-05T15:30:56.126Z,5.18
2023-05-05T15:33:24.985Z,5.07
2023-05-05T15:35:54.010Z,5.05
2023-05-05T15:38:22.652Z,5.55
2023-05-05T15:40:52.036Z,4.60
2023-05-05T15:43:18.593Z,4.55
2023-05-05T15:45:47.430Z,4.22
2023-05-05T15:48:16.017Z,4.93
2023-05-05T15:50:42.474Z,4.35
2023-05-05T15:53:14.575Z,4.28
2023-05-05T15:55:41.581Z,5.00
2023-05-05T15:58:08.024Z,4.88
2023-05-05T16:00:39.252Z,4.82
2023-05-05T16:03:08.025Z,4.40
2023-05-05T16:05:36.891Z,4.30
2023-05-05T16:08:09.605Z,4.70
2023-05-05T16:10:40.824Z,4.18
2023-05-05T16:13:09.906Z,4.10
2023-05-05T16:15:36.423Z,4.53
2023-05-05T16:18:05.404Z,5.07
2023-05-05T16:20:31.989Z,5.28
2023-05-05T16:22:58.515Z,4.80
2023-05-05T16:25:27.337Z,5.47
2023-05-05T16:28:00.156Z,5.57
2023-05-05T16:30:29.371Z,4.90
2023-05-05T16:32:58.197Z,5.13
2023-05-05T16:35:29.591Z,3.15
2023-05-05T16:37:58.517Z,3.40
2023-05-05T16:40:24.905Z,2.15
2023-05-05T16:42:51.331Z,2.25
2023-05-05T16:45:20.219Z,2.22
2023-05-05T16:47:46.774Z,1.88
2023-05-05T16:50:13.331Z,2.50
2023-05-05T16:52:39.816Z,2.00
2023-05-05T16:55:08.890Z,2.05
2023-05-05T16:57:38.314Z,3.05
2023-05-05T17:00:10.270Z,2.65
2023-05-05T17:02:39.403Z,3.35
2023-05-05T17:05:13.868Z,3.75
2023-05-05T17:07:40.724Z,4.38
2023-05-05T17:10:07.511Z,5.13
2023-05-05T17:12:36.141Z,4.38
2023-05-05T17:15:07.854Z,3.25
2023-05-05T17:17:34.992Z,3.38
2023-05-05T17:20:06.575Z,3.05
2023-05-05T17:22:35.296Z,3.22
2023-05-05T17:25:08.237Z,2.58
2023-05-05T17:27:40.022Z,3.10
2023-05-05T17:30:06.785Z,3.72
2023-05-05T17:32:33.275Z,4.25
2023-05-05T17:35:02.116Z,3.03
2023-05-05T17:37:29.283Z,3.38
2023-05-05T17:39:55.773Z,2.75
2023-05-05T17:42:26.919Z,2.70
2023-05-05T17:44:53.436Z,3.30
2023-05-05T17:47:22.537Z,2.80
2023-05-05T17:49:49.351Z,3.63
2023-05-05T17:52:15.909Z,2.63
2023-05-05T17:54:48.761Z,2.53
2023-05-05T17:57:18.799Z,2.80
2023-05-05T17:59:45.440Z,3.10
2023-05-05T18:02:19.468Z,2.85
2023-05-05T18:04:48.338Z,2.70
2023-05-05T18:07:14.946Z,2.50
2023-05-05T18:09:41.800Z,2.90
2023-05-05T18:12:08.312Z,3.05
2023-05-05T18:14:34.889Z,3.42
2023-05-05T18:17:06.116Z,2.88
2023-05-05T18:19:37.987Z,2.72
2023-05-05T18:22:06.976Z,4.30
2023-05-05T18:24:33.467Z,2.60
2023-05-05T18:26:59.986Z,2.67
2023-05-05T18:29:28.954Z,2.95
2023-05-05T18:31:55.757Z,2.90
2023-05-05T18:34:26.789Z,2.78
2023-05-05T18:36:54.776Z,2.90
2023-05-05T18:39:21.319Z,3.03
2023-05-05T18:41:50.277Z,2.40
2023-05-05T18:44:20.109Z,2.47
2023-05-05T18:46:49.727Z,2.53
2023-05-05T18:49:18.780Z,2.70
2023-05-05T18:51:47.640Z,2.67
2023-05-05T18:54:20.849Z,2.78
2023-05-05T18:56:49.553Z,2.75
2023-05-05T18:59:18.583Z,2.72
2023-05-05T19:01:45.314Z,2.75
2023-05-05T19:04:29.399Z,2.33
2023-05-05T19:06:57.668Z,2.50
2023-05-05T19:09:26.404Z,2.90
2023-05-05T19:11:55.482Z,2.60
2023-05-05T19:14:27.452Z,2.55
2023-05-05T19:16:58.930Z,2.92
2023-05-05T19:19:30.271Z,2.33
2023-05-05T19:21:58.036Z,2.92
2023-05-05T19:24:24.548Z,2.40
2023-05-05T19:26:50.989Z,2.60
2023-05-05T19:29:20.115Z,2.70
2023-05-05T19:31:46.929Z,2.45
2023-05-05T19:34:16.026Z,2.22
2023-05-05T19:36:45.141Z,2.78
2023-05-05T19:39:13.073Z,3.03
2023-05-05T19:41:41.059Z,2.40
2023-05-05T19:44:09.807Z,2.47
2023-05-05T19:46:39.126Z,2.35
2023-05-05T19:49:06.152Z,2.80
2023-05-05T19:51:37.914Z,2.53
2023-05-05T19:54:07.095Z,2.33
2023-05-05T19:56:33.475Z,2.45
2023-05-05T19:59:05.000Z,2.25
2023-05-05T20:01:35.084Z,2.33
2023-05-05T20:04:04.003Z,2.45
2023-05-05T20:06:32.828Z,2.08
2023-05-05T20:08:59.397Z,2.55
2023-05-05T20:11:26.086Z,2.15
2023-05-05T20:13:55.155Z,2.28
2023-05-05T20:16:26.844Z,2.47
2023-05-05T20:18:53.436Z,2.53
2023-05-05T20:21:19.902Z,2.30
2023-05-05T20:23:48.624Z,2.33
2023-05-05T20:26:15.161Z,2.30
2023-05-05T20:28:44.763Z,2.50
2023-05-05T20:31:12.044Z,2.05
2023-05-05T20:33:41.078Z,1.92
2023-05-05T20:36:10.396Z,2.30
2023-05-05T20:38:38.955Z,2.22
2023-05-05T20:41:05.766Z,2.60
2023-05-05T20:43:32.290Z,2.40
2023-05-05T20:46:01.605Z,2.28
2023-05-05T20:48:32.972Z,2.72
2023-05-05T20:51:05.137Z,2.38
2023-05-05T20:53:31.809Z,1.98
2023-05-05T20:56:06.442Z,2.40
2023-05-05T20:58:34.537Z,2.33
2023-05-05T21:01:06.166Z,2.72
2023-05-05T21:03:32.788Z,2.60
2023-05-05T21:06:01.732Z,2.05
2023-05-05T21:08:29.316Z,2.40
2023-05-05T21:10:55.795Z,2.42
2023-05-05T21:13:22.954Z,3.13
2023-05-05T21:15:51.870Z,2.38
2023-05-05T21:18:21.047Z,2.60
2023-05-05T21:20:51.829Z,2.20
2023-05-05T21:23:23.232Z,2.50
2023-05-05T21:25:49.846Z,2.72
2023-05-05T21:28:23.319Z,2.47
2023-05-05T21:33:27.286Z,2.60
2023-05-05T21:35:56.367Z,2.47
2023-05-05T21:38:22.770Z,2.22
2023-05-05T21:40:51.612Z,2.03
2023-05-05T21:43:18.099Z,2.60
2023-05-05T21:45:46.995Z,2.28
2023-05-05T21:48:13.454Z,2.40
2023-05-05T21:50:43.035Z,2.40
2023-05-05T21:53:11.954Z,2.20
2023-05-05T21:55:43.341Z,2.60
2023-05-05T21:58:12.462Z,2.20
2023-05-05T22:00:46.390Z,2.20
2023-05-05T22:03:15.834Z,2.33
2023-05-05T22:05:42.403Z,2.35
2023-05-05T22:08:11.355Z,2.20
2023-05-05T22:10:39.137Z,2.17
2023-05-05T22:13:10.846Z,2.40
2023-05-05T22:15:46.627Z,1.98
2023-05-05T22:18:14.340Z,2.30
2023-05-05T22:20:40.932Z,2.30
2023-05-05T22:23:09.955Z,2.50
2023-05-05T22:25:38.848Z,2.42
2023-05-05T22:28:07.719Z,2.20
2023-05-05T22:30:35.493Z,2.25
2023-05-05T22:33:02.087Z,2.35
2023-05-05T22:35:31.178Z,2.28
2023-05-05T22:37:59.919Z,2.50
2023-05-05T22:40:33.836Z,2.05
2023-05-05T22:43:02.898Z,2.45
2023-05-05T22:45:31.778Z,2.42
2023-05-05T22:48:03.289Z,2.47
2023-05-05T22:50:34.602Z,2.42
2023-05-05T22:53:01.129Z,1.83
2023-05-05T22:55:27.645Z,2.40
2023-05-05T22:57:56.473Z,2.28
2023-05-05T23:00:22.914Z,2.55
2023-05-05T23:02:51.871Z,1.98
2023-05-05T23:05:18.388Z,2.55
2023-05-05T23:07:44.843Z,2.20
2023-05-05T23:10:13.817Z,2.25
2023-05-05T23:12:45.684Z,2.40
2023-05-05T23:15:15.070Z,2.28
2023-05-05T23:17:43.877Z,2.10
2023-05-05T23:20:13.251Z,2.90
2023-05-05T23:22:39.792Z,2.33
2023-05-05T23:25:08.808Z,2.38
2023-05-05T23:27:37.809Z,2.60
2023-05-05T23:30:08.105Z,2.42
2023-05-05T23:32:39.621Z,2.58
2023-05-05T23:35:08.969Z,1.85
2023-05-05T23:37:37.925Z,2.50
2023-05-05T23:40:05.134Z,2.17
2023-05-05T23:42:38.816Z,2.20
2023-05-05T23:45:13.060Z,2.15
2023-05-05T23:47:39.721Z,2.00
2023-05-05T23:50:06.636Z,2.00
2023-05-05T23:52:37.675Z,2.17
2023-05-05T23:55:10.266Z,2.25
2023-05-05T23:57:39.428Z,2.22
